createdAt,value
2023-04-03T00:00:42.276Z,98812.84
2023-04-03T00:01:45.506Z,98805.97
2023-04-03T00:02:47.426Z,98802.53
2023-04-03T00:03:51.039Z,98809.38
2023-04-03T00:04:56.962Z,98808.47
2023-04-03T00:06:00.373Z,98813.72
2023-04-03T00:07:03.143Z,98805.97
2023-04-03T00:08:08.575Z,98810.28
2023-04-03T00:09:11.348Z,98812.84
2023-04-03T00:10:13.502Z,98812.03
2023-04-03T00:11:17.068Z,98812.03
2023-04-03T00:12:18.900Z,98810.28
2023-04-03T00:13:21.685Z,98799.13
2023-04-03T00:14:23.550Z,98804.28
2023-04-03T00:15:26.455Z,98814.59
2023-04-03T00:16:28.345Z,98811.19
2023-04-03T00:17:31.181Z,98809.44
2023-04-03T00:18:33.040Z,98812.03
2023-04-03T00:19:35.879Z,98802.53
2023-04-03T00:20:38.156Z,98812.03
2023-04-03T00:21:42.516Z,98806.88
2023-04-03T00:22:44.340Z,98808.63
2023-04-03T00:23:47.236Z,98814.69
2023-04-03T00:24:49.047Z,98810.38
2023-04-03T00:25:52.179Z,98811.19
2023-04-03T00:26:54.446Z,98819.75
2023-04-03T00:27:57.211Z,98818.00
2023-04-03T00:28:59.066Z,98816.28
2023-04-03T00:30:01.897Z,98819.69
2023-04-03T00:31:06.123Z,98817.94
2023-04-03T00:32:08.885Z,98812.84
2023-04-03T00:33:12.314Z,98811.13
2023-04-03T00:34:15.035Z,98811.06
2023-04-03T00:35:17.211Z,98814.53
2023-04-03T00:36:20.280Z,98812.84
2023-04-03T00:37:23.527Z,98814.53
2023-04-03T00:38:26.397Z,98809.44
2023-04-03T00:39:28.542Z,98813.78
2023-04-03T00:40:36.241Z,98807.78
2023-04-03T00:41:38.230Z,98814.69
2023-04-03T00:42:44.312Z,98806.13
2023-04-03T00:43:46.161Z,98815.53
2023-04-03T00:45:28.218Z,98813.03
2023-04-03T00:46:31.493Z,98813.34
2023-04-03T00:47:34.425Z,98816.88
2023-04-03T00:48:39.975Z,98805.06
2023-04-03T00:49:42.244Z,98810.22
2023-04-03T00:50:45.377Z,98810.38
2023-04-03T00:51:47.585Z,98817.34
2023-04-03T00:52:51.972Z,98818.34
2023-04-03T00:53:58.035Z,98817.50
2023-04-03T00:55:03.667Z,98817.56
2023-04-03T00:56:08.406Z,98818.47
2023-04-03T00:57:11.845Z,98814.22
2023-04-03T00:58:15.518Z,98815.97
2023-04-03T00:59:23.098Z,98813.50
2023-04-03T01:00:27.110Z,98820.38
2023-04-03T01:01:30.673Z,98814.41
2023-04-03T01:02:35.600Z,98823.00
2023-04-03T01:03:39.009Z,98822.19
2023-04-03T01:04:43.629Z,98817.13
2023-04-03T01:05:46.569Z,98824.84
2023-04-03T01:06:48.379Z,98830.00
2023-04-03T01:07:53.446Z,98830.06
2023-04-03T01:08:56.258Z,98825.81
2023-04-03T01:10:01.423Z,98827.56
2023-04-03T01:11:03.600Z,98828.38
2023-04-03T01:12:17.816Z,98830.13
2023-04-03T01:13:25.347Z,98836.91
2023-04-03T01:14:27.230Z,98828.34
2023-04-03T01:15:33.804Z,98827.41
2023-04-03T01:16:35.833Z,98830.81
2023-04-03T01:17:40.639Z,98834.22
2023-04-03T01:18:43.769Z,98838.47
2023-04-03T01:19:56.021Z,98825.59
2023-04-03T01:21:22.642Z,98826.41
2023-04-03T01:22:27.456Z,98826.41
2023-04-03T01:23:39.519Z,98829.00
2023-04-03T01:24:42.314Z,98835.00
2023-04-03T01:25:49.052Z,98836.72
2023-04-03T01:26:52.213Z,98835.00
2023-04-03T01:27:54.412Z,98830.69
2023-04-03T01:28:57.599Z,98832.34
2023-04-03T01:29:59.623Z,98834.00
2023-04-03T01:31:05.947Z,98833.09
2023-04-03T01:32:12.184Z,98836.50
2023-04-03T01:33:14.024Z,98831.44
2023-04-03T01:34:17.073Z,98836.50
2023-04-03T01:35:19.570Z,98837.34
2023-04-03T01:36:25.550Z,98839.09
2023-04-03T01:37:27.468Z,98839.03
2023-04-03T01:38:30.769Z,98839.84
2023-04-03T01:39:32.643Z,98841.53
2023-04-03T01:40:37.122Z,98840.59
2023-04-03T01:41:39.281Z,98838.84
2023-04-03T01:42:49.334Z,98850.84
2023-04-03T01:43:51.318Z,98840.59
2023-04-03T01:44:54.181Z,98847.41
2023-04-03T01:45:56.079Z,98840.59
2023-04-03T01:46:59.033Z,98841.53
2023-04-03T01:48:06.002Z,98848.47
2023-04-03T01:49:08.807Z,98849.38
2023-04-03T01:50:10.841Z,98853.78
2023-04-03T01:51:14.058Z,98850.47
2023-04-03T01:52:16.296Z,98844.47
2023-04-03T01:53:19.081Z,98854.75
2023-04-03T01:54:21.331Z,98860.00
2023-04-03T01:55:24.234Z,98851.44
2023-04-03T01:56:26.138Z,98846.28
2023-04-03T01:57:29.220Z,98848.13
2023-04-03T01:58:31.499Z,98849.69
2023-04-03T01:59:34.313Z,98838.63
2023-04-03T02:00:37.648Z,98846.38
2023-04-03T02:01:41.563Z,98849.84
2023-04-03T02:02:45.026Z,98847.34
2023-04-03T02:03:49.447Z,98852.56
2023-04-03T02:04:51.256Z,98856.06
2023-04-03T02:05:54.945Z,98848.38
2023-04-03T02:07:01.207Z,98851.03
2023-04-03T02:08:04.045Z,98849.38
2023-04-03T02:09:06.095Z,98846.88
2023-04-03T02:10:09.536Z,98849.47
2023-04-03T02:11:11.362Z,98853.78
2023-04-03T02:12:14.130Z,98850.34
2023-04-03T02:13:16.382Z,98855.56
2023-04-03T02:14:19.170Z,98855.56
2023-04-03T02:15:21.665Z,98857.25
2023-04-03T02:16:24.584Z,98852.16
2023-04-03T02:17:26.421Z,98855.56
2023-04-03T02:18:31.410Z,98858.97
2023-04-03T02:19:35.584Z,98856.34
2023-04-03T02:20:39.173Z,98858.06
2023-04-03T02:21:41.280Z,98864.09
2023-04-03T02:22:44.433Z,98858.03
2023-04-03T02:23:46.355Z,98856.19
2023-04-03T02:24:49.146Z,98851.13
2023-04-03T02:25:51.129Z,98860.50
2023-04-03T02:26:53.883Z,98853.69
2023-04-03T02:27:55.744Z,98857.09
2023-04-03T02:29:00.096Z,98864.91
2023-04-03T02:30:01.929Z,98863.19
2023-04-03T02:31:05.743Z,98852.88
2023-04-03T02:32:08.096Z,98858.84
2023-04-03T02:33:12.001Z,98863.19
2023-04-03T02:34:14.884Z,98858.06
2023-04-03T02:35:22.129Z,98865.75
2023-04-03T02:36:24.496Z,98865.75
2023-04-03T02:37:32.306Z,98865.75
2023-04-03T02:38:34.852Z,98870.91
2023-04-03T02:39:37.742Z,98859.75
2023-04-03T02:40:39.792Z,98864.09
2023-04-03T02:41:42.796Z,98862.34
2023-04-03T02:42:49.686Z,98863.22
2023-04-03T02:43:52.480Z,98870.13
2023-04-03T02:44:56.248Z,98865.88
2023-04-03T02:45:59.474Z,98864.22
2023-04-03T02:47:01.323Z,98861.66
2023-04-03T02:48:04.814Z,98861.66
2023-04-03T02:49:06.787Z,98872.78
2023-04-03T02:50:10.577Z,98860.91
2023-04-03T02:51:13.760Z,98870.34
2023-04-03T02:52:16.590Z,98873.81
2023-04-03T02:53:18.753Z,98875.56
2023-04-03T02:54:28.663Z,98874.81
2023-04-03T02:55:32.492Z,98868.88
2023-04-03T02:56:35.401Z,98874.88
2023-04-03T02:57:37.330Z,98872.38
2023-04-03T02:58:40.306Z,98880.09
2023-04-03T02:59:43.610Z,98881.09
2023-04-03T03:00:47.682Z,98882.84
2023-04-03T03:01:49.530Z,98881.13
2023-04-03T03:02:52.350Z,98882.97
2023-04-03T03:03:54.278Z,98880.53
2023-04-03T03:04:57.214Z,98885.91
2023-04-03T03:06:03.673Z,98880.88
2023-04-03T03:07:08.167Z,98881.84
2023-04-03T03:08:09.932Z,98880.25
2023-04-03T03:09:14.005Z,98882.91
2023-04-03T03:10:18.149Z,98883.03
2023-04-03T03:11:23.151Z,98868.78
2023-04-03T03:12:25.638Z,98873.16
2023-04-03T03:13:29.648Z,98879.34
2023-04-03T03:14:32.313Z,98874.34
2023-04-03T03:15:35.123Z,98880.47
2023-04-03T03:16:37.904Z,98882.19
2023-04-03T03:17:40.765Z,98896.88
2023-04-03T03:18:42.552Z,98882.34
2023-04-03T03:19:46.661Z,98879.06
2023-04-03T03:20:52.037Z,98882.63
2023-04-03T03:21:56.063Z,98889.50
2023-04-03T03:22:59.549Z,98882.75
2023-04-03T03:24:02.311Z,98894.88
2023-04-03T03:25:04.891Z,98882.88
2023-04-03T03:26:09.406Z,98891.50
2023-04-03T03:27:11.387Z,98889.84
2023-04-03T03:28:14.124Z,98889.09
2023-04-03T03:29:17.700Z,98895.13
2023-04-03T03:30:22.402Z,98886.56
2023-04-03T03:31:24.246Z,98891.78
2023-04-03T03:32:27.280Z,98893.59
2023-04-03T03:33:29.503Z,98895.38
2023-04-03T03:34:32.404Z,98893.66
2023-04-03T03:35:35.173Z,98898.78
2023-04-03T03:36:39.190Z,98894.56
2023-04-03T03:37:41.118Z,98900.53
2023-04-03T03:38:45.614Z,98899.69
2023-04-03T03:39:47.454Z,98900.59
2023-04-03T03:40:51.279Z,98883.50
2023-04-03T03:41:56.545Z,98904.97
2023-04-03T03:42:59.630Z,98904.13
2023-04-03T03:44:01.487Z,98910.09
2023-04-03T03:45:09.023Z,98903.38
2023-04-03T03:46:10.933Z,98905.13
2023-04-03T03:47:13.737Z,98910.34
2023-04-03T03:48:16.912Z,98903.50
2023-04-03T03:49:19.706Z,98902.66
2023-04-03T03:50:21.632Z,98908.63
2023-04-03T03:51:26.764Z,98909.53
2023-04-03T03:52:29.107Z,98907.88
2023-04-03T03:53:32.957Z,98912.94
2023-04-03T03:54:42.551Z,98902.75
2023-04-03T03:55:44.637Z,98916.44
2023-04-03T03:56:47.475Z,98904.56
2023-04-03T03:57:50.848Z,98907.97
2023-04-03T03:58:54.637Z,98897.66
2023-04-03T03:59:57.039Z,98905.44
2023-04-03T04:01:02.773Z,98905.44
2023-04-03T04:02:04.703Z,98909.81
2023-04-03T04:03:07.656Z,98907.25
2023-04-03T04:04:09.891Z,98896.97
2023-04-03T04:05:12.913Z,98907.25
2023-04-03T04:06:14.753Z,98910.72
2023-04-03T04:07:17.695Z,98916.69
2023-04-03T04:08:19.569Z,98909.81
2023-04-03T04:09:22.781Z,98916.69
2023-04-03T04:10:26.997Z,98917.59
2023-04-03T04:11:30.247Z,98902.19
2023-04-03T04:12:32.275Z,98903.09
2023-04-03T04:13:35.696Z,98918.56
2023-04-03T04:14:37.824Z,98917.78
2023-04-03T04:15:42.231Z,98922.09
2023-04-03T04:16:44.232Z,98917.88
2023-04-03T04:17:52.384Z,98921.31
2023-04-03T04:18:54.259Z,98922.22
2023-04-03T04:19:58.950Z,98920.63
2023-04-03T04:21:01.109Z,98928.28
2023-04-03T04:22:04.337Z,98927.44
2023-04-03T04:23:08.267Z,98917.22
2023-04-03T04:24:12.615Z,98929.19
2023-04-03T04:25:14.993Z,98925.78
2023-04-03T04:26:21.241Z,98927.50
2023-04-03T04:27:23.435Z,98929.22
2023-04-03T04:28:26.319Z,98929.22
2023-04-03T04:29:29.992Z,98935.28
2023-04-03T04:30:32.970Z,98934.44
2023-04-03T04:31:35.283Z,98936.94
2023-04-03T04:32:38.397Z,98936.06
2023-04-03T04:33:41.159Z,98936.91
2023-04-03T04:34:46.471Z,98945.44
2023-04-03T04:35:51.061Z,98945.44
2023-04-03T04:36:56.217Z,98946.34
2023-04-03T04:37:58.243Z,98946.34
2023-04-03T04:39:01.201Z,98942.94
2023-04-03T04:40:04.104Z,98938.63
2023-04-03T04:41:09.741Z,98948.91
2023-04-03T04:42:17.457Z,98945.44
2023-04-03T04:43:24.973Z,98948.84
2023-04-03T04:44:30.272Z,98945.38
2023-04-03T04:45:32.575Z,98947.94
2023-04-03T04:46:35.934Z,98946.16
2023-04-03T04:47:37.987Z,98947.00
2023-04-03T04:48:41.872Z,98942.69
2023-04-03T04:49:44.428Z,98958.09
2023-04-03T04:50:47.968Z,98946.09
2023-04-03T04:51:52.309Z,98958.94
2023-04-03T04:53:00.500Z,98944.47
2023-04-03T04:54:02.333Z,98950.44
2023-04-03T04:55:06.703Z,98959.06
2023-04-03T04:56:08.839Z,98960.88
2023-04-03T04:57:13.535Z,98957.47
2023-04-03T04:58:16.799Z,98951.53
2023-04-03T04:59:21.859Z,98964.47
2023-04-03T05:00:24.640Z,98958.41
2023-04-03T05:01:27.484Z,98961.81
2023-04-03T05:02:47.960Z,98964.47
2023-04-03T05:03:50.222Z,98970.44
2023-04-03T05:04:55.547Z,98966.19
2023-04-03T05:06:03.030Z,98975.66
2023-04-03T05:07:06.732Z,98976.47
2023-04-03T05:08:12.815Z,98972.25
2023-04-03T05:09:17.082Z,98975.72
2023-04-03T05:10:21.537Z,98978.34
2023-04-03T05:11:25.161Z,98971.53
2023-04-03T05:12:28.730Z,98974.94
2023-04-03T05:13:36.047Z,98980.97
2023-04-03T05:14:39.058Z,98980.16
2023-04-03T05:15:43.552Z,98980.16
2023-04-03T05:16:46.479Z,98974.16
2023-04-03T05:17:48.522Z,98980.16
2023-04-03T05:18:52.284Z,98980.16
2023-04-03T05:19:58.316Z,98982.72
2023-04-03T05:21:03.401Z,98976.78
2023-04-03T05:22:06.125Z,98976.78
2023-04-03T05:23:09.136Z,98980.16
2023-04-03T05:24:11.490Z,98976.75
2023-04-03T05:25:17.705Z,98987.72
2023-04-03T05:26:20.156Z,98974.81
2023-04-03T05:27:25.104Z,98977.38
2023-04-03T05:28:29.619Z,98983.38
2023-04-03T05:29:33.951Z,98985.03
2023-04-03T05:30:39.167Z,98982.38
2023-04-03T05:31:41.977Z,98989.22
2023-04-03T05:32:46.431Z,98993.50
2023-04-03T05:33:54.746Z,98990.06
2023-04-03T05:35:01.170Z,98986.69
2023-04-03T05:36:05.805Z,98982.38
2023-04-03T05:37:16.019Z,98988.34
2023-04-03T05:38:19.206Z,98992.63
2023-04-03T05:39:22.020Z,98989.22
2023-04-03T05:40:25.388Z,98995.19
2023-04-03T05:41:30.774Z,98992.63
2023-04-03T05:42:33.712Z,98993.47
2023-04-03T05:43:39.922Z,98985.69
2023-04-03T05:44:47.815Z,98997.69
2023-04-03T05:45:49.914Z,98983.94
2023-04-03T05:46:52.875Z,98996.72
2023-04-03T05:47:55.550Z,99000.09
2023-04-03T05:48:58.395Z,98996.53
2023-04-03T05:50:06.686Z,98997.34
2023-04-03T05:51:14.980Z,98992.00
2023-04-03T05:52:22.786Z,98995.25
2023-04-03T05:53:28.471Z,98996.09
2023-04-03T05:54:33.554Z,98990.06
2023-04-03T05:55:46.791Z,98999.47
2023-04-03T05:56:52.769Z,99000.22
2023-04-03T05:57:57.469Z,98992.38
2023-04-03T05:59:00.443Z,98996.53
2023-04-03T06:00:06.617Z,99006.78
2023-04-03T06:01:17.149Z,98998.94
2023-04-03T06:02:22.695Z,98997.00
2023-04-03T06:03:26.504Z,98995.91
2023-04-03T06:04:29.501Z,98999.94
2023-04-03T06:05:31.470Z,99000.59
2023-04-03T06:06:46.791Z,98996.06
2023-04-03T06:07:50.627Z,98997.75
2023-04-03T06:08:54.137Z,99002.69
2023-04-03T06:09:58.200Z,98999.16
2023-04-03T06:11:00.975Z,98999.91
2023-04-03T06:12:03.993Z,99005.84
2023-04-03T06:13:06.995Z,99003.28
2023-04-03T06:14:10.148Z,99002.38
2023-04-03T06:15:16.507Z,99003.28
2023-04-03T06:16:18.824Z,99007.53
2023-04-03T06:17:21.638Z,99006.63
2023-04-03T06:18:24.065Z,99006.63
2023-04-03T06:19:27.849Z,99008.22
2023-04-03T06:20:33.046Z,99014.34
2023-04-03T06:21:36.674Z,99013.50
2023-04-03T06:22:40.265Z,99005.06
2023-04-03T06:23:42.891Z,99008.56
2023-04-03T06:24:45.674Z,99012.03
2023-04-03T06:25:48.626Z,99011.13
2023-04-03T06:26:52.279Z,99015.44
2023-04-03T06:27:56.379Z,99008.69
2023-04-03T06:28:58.315Z,99018.09
2023-04-03T06:30:01.068Z,99023.28
2023-04-03T06:31:04.239Z,99023.38
2023-04-03T06:32:08.105Z,99023.47
2023-04-03T06:33:11.721Z,99016.66
2023-04-03T06:34:13.763Z,99026.13
2023-04-03T06:35:17.919Z,99019.38
2023-04-03T06:36:21.569Z,99027.16
2023-04-03T06:37:26.914Z,99023.91
2023-04-03T06:38:29.721Z,99029.16
2023-04-03T06:39:31.602Z,99035.22
2023-04-03T06:40:34.656Z,99029.22
2023-04-03T06:41:37.271Z,99035.22
2023-04-03T06:42:40.150Z,99030.00
2023-04-03T06:43:47.124Z,99034.31
2023-04-03T06:44:49.167Z,99037.88
2023-04-03T06:45:52.289Z,99032.75
2023-04-03T06:46:56.531Z,99034.56
2023-04-03T06:47:59.828Z,99031.25
2023-04-03T06:49:02.932Z,99033.03
2023-04-03T06:50:07.984Z,99046.88
2023-04-03T06:51:18.348Z,99041.91
2023-04-03T06:52:21.675Z,99024.16
2023-04-03T06:53:24.745Z,99040.53
2023-04-03T06:54:31.832Z,99037.22
2023-04-03T06:55:34.728Z,99044.97
2023-04-03T06:56:36.700Z,99038.09
2023-04-03T06:57:39.960Z,99049.22
2023-04-03T06:58:42.536Z,99056.03
2023-04-03T06:59:45.573Z,99055.22
2023-04-03T07:00:48.296Z,99056.88
2023-04-03T07:01:51.242Z,99056.03
2023-04-03T07:02:54.580Z,99048.25
2023-04-03T07:03:58.382Z,99058.66
2023-04-03T07:05:00.336Z,99059.56
2023-04-03T07:06:03.226Z,99057.00
2023-04-03T07:07:09.339Z,99060.41
2023-04-03T07:08:12.263Z,99058.63
2023-04-03T07:09:15.078Z,99066.19
2023-04-03T07:10:19.302Z,99054.22
2023-04-03T07:11:22.681Z,99066.16
2023-04-03T07:12:25.590Z,99060.88
2023-04-03T07:13:27.716Z,99065.00
2023-04-03T07:14:30.538Z,99073.47
2023-04-03T07:15:32.384Z,99071.63
2023-04-03T07:16:35.897Z,99068.03
2023-04-03T07:17:38.984Z,99072.25
2023-04-03T07:18:42.478Z,99073.94
2023-04-03T07:19:45.416Z,99078.25
2023-04-03T07:20:47.259Z,99075.63
2023-04-03T07:21:53.985Z,99076.47
2023-04-03T07:22:57.066Z,99075.56
2023-04-03T07:23:59.058Z,99080.63
2023-04-03T07:25:01.902Z,99084.00
2023-04-03T07:26:04.056Z,99076.19
2023-04-03T07:27:09.352Z,99083.00
2023-04-03T07:28:11.170Z,99083.84
2023-04-03T07:29:14.224Z,99087.19
2023-04-03T07:30:16.292Z,99079.47
2023-04-03T07:31:19.772Z,99091.38
2023-04-03T07:32:23.930Z,99083.59
2023-04-03T07:33:25.869Z,99089.25
2023-04-03T07:34:30.016Z,99079.78
2023-04-03T07:35:32.028Z,99086.63
2023-04-03T07:36:34.871Z,99089.91
2023-04-03T07:37:37.744Z,99087.25
2023-04-03T07:38:41.512Z,99082.19
2023-04-03T07:39:45.784Z,99081.16
2023-04-03T07:40:49.432Z,99084.56
2023-04-03T07:41:52.756Z,99092.97
2023-04-03T07:42:57.450Z,99090.41
2023-04-03T07:44:00.334Z,99082.56
2023-04-03T07:45:02.656Z,99089.44
2023-04-03T07:46:07.233Z,99087.63
2023-04-03T07:47:09.517Z,99086.88
2023-04-03T07:48:14.054Z,99083.31
2023-04-03T07:49:15.920Z,99079.72
2023-04-03T07:50:23.226Z,99091.69
2023-04-03T07:51:30.826Z,99083.97
2023-04-03T07:52:32.662Z,99094.91
2023-04-03T07:53:35.988Z,99090.25
2023-04-03T07:54:41.092Z,99093.34
2023-04-03T07:55:44.856Z,99090.63
2023-04-03T07:56:47.699Z,99090.78
2023-04-03T07:57:49.632Z,99089.91
2023-04-03T07:58:56.024Z,99089.06
2023-04-03T07:59:58.823Z,99084.63
2023-04-03T08:01:01.563Z,99092.28
2023-04-03T08:02:05.932Z,99088.75
2023-04-03T08:03:12.579Z,99091.13
2023-04-03T08:04:16.985Z,99084.72
2023-04-03T08:05:19.287Z,99083.59
2023-04-03T08:06:32.959Z,99086.81
2023-04-03T08:07:43.732Z,99087.22
2023-04-03T08:08:45.583Z,99078.13
2023-04-03T08:09:50.210Z,99090.34
2023-04-03T08:10:56.748Z,99090.69
2023-04-03T08:11:59.859Z,99090.34
2023-04-03T08:13:02.094Z,99091.56
2023-04-03T08:14:06.535Z,99088.56
2023-04-03T08:15:09.826Z,99093.25
2023-04-03T08:16:14.487Z,99087.66
2023-04-03T08:17:17.513Z,99088.03
2023-04-03T08:18:22.734Z,99075.50
2023-04-03T08:19:26.838Z,99092.31
2023-04-03T08:20:30.051Z,99087.53
2023-04-03T08:21:34.147Z,99089.47
2023-04-03T08:22:36.200Z,99088.91
2023-04-03T08:23:39.439Z,99085.09
2023-04-03T08:24:56.310Z,99094.38
2023-04-03T08:26:01.895Z,99088.97
2023-04-03T08:27:05.156Z,99088.38
2023-04-03T08:28:07.665Z,99098.09
2023-04-03T08:29:10.553Z,99101.09
2023-04-03T08:30:15.635Z,99097.91
2023-04-03T08:31:21.102Z,99103.97
2023-04-03T08:32:24.134Z,99098.38
2023-04-03T08:33:26.239Z,99092.28
2023-04-03T08:34:29.000Z,99100.63
2023-04-03T08:35:31.052Z,99092.97
2023-04-03T08:36:39.415Z,99092.19
2023-04-03T08:37:42.393Z,99101.59
2023-04-03T08:38:44.273Z,99103.22
2023-04-03T08:39:48.684Z,99095.06
2023-04-03T08:41:02.120Z,99101.59
2023-04-03T08:42:08.448Z,99109.03
2023-04-03T08:43:28.279Z,99107.97
2023-04-03T08:44:44.913Z,99107.13
2023-04-03T08:45:52.586Z,99111.47
2023-04-03T08:47:05.455Z,99112.38
2023-04-03T08:48:14.106Z,99109.97
2023-04-03T08:49:24.814Z,99115.44
2023-04-03T08:50:32.516Z,99116.28
2023-04-03T08:51:34.411Z,99112.69
2023-04-03T08:52:41.496Z,99111.72
2023-04-03T08:53:46.564Z,99115.03
2023-04-03T08:54:54.978Z,99114.06
2023-04-03T08:56:00.766Z,99117.53
2023-04-03T08:57:06.149Z,99122.47
2023-04-03T08:58:13.295Z,99121.25
2023-04-03T08:59:24.012Z,99127.84
2023-04-03T09:00:29.238Z,99112.75
2023-04-03T09:01:36.565Z,99121.78
2023-04-03T09:02:44.051Z,99123.06
2023-04-03T09:03:46.860Z,99122.56
2023-04-03T09:04:49.694Z,99118.41
2023-04-03T09:05:57.797Z,99120.06
2023-04-03T09:07:04.820Z,99111.22
2023-04-03T09:08:15.507Z,99112.69
2023-04-03T09:09:31.174Z,99109.50
2023-04-03T09:10:35.564Z,99117.69
2023-04-03T09:11:48.228Z,99118.06
2023-04-03T09:12:59.509Z,99120.28
2023-04-03T09:14:06.523Z,99122.88
2023-04-03T09:15:20.031Z,99101.41
2023-04-03T09:16:36.192Z,99123.75
2023-04-03T09:17:44.626Z,99110.69
2023-04-03T09:18:49.982Z,99127.59
2023-04-03T09:19:59.313Z,99107.13
2023-04-03T09:21:08.260Z,99129.69
2023-04-03T09:22:16.188Z,99112.50
2023-04-03T09:23:26.387Z,99118.81
2023-04-03T09:24:29.988Z,99119.06
2023-04-03T09:25:35.575Z,99123.19
2023-04-03T09:26:44.538Z,99130.16
2023-04-03T09:27:47.958Z,99118.84
2023-04-03T09:28:51.402Z,99126.75
2023-04-03T09:29:56.219Z,99131.44
2023-04-03T09:30:59.036Z,99121.44
2023-04-03T09:32:03.348Z,99124.03
2023-04-03T09:33:08.404Z,99132.06
2023-04-03T09:34:18.940Z,99126.22
2023-04-03T09:35:32.909Z,99132.66
2023-04-03T09:36:46.421Z,99126.91
2023-04-03T09:37:50.661Z,99126.88
2023-04-03T09:39:07.993Z,99131.56
2023-04-03T09:40:30.661Z,99126.06
2023-04-03T09:41:34.218Z,99129.78
2023-04-03T09:42:46.252Z,99127.09
2023-04-03T09:43:54.751Z,99124.75
2023-04-03T09:45:00.018Z,99139.84
2023-04-03T09:46:21.135Z,99134.56
2023-04-03T09:47:26.034Z,99128.66
2023-04-03T09:48:29.308Z,99124.94
2023-04-03T09:49:32.189Z,99137.28
2023-04-03T09:50:36.311Z,99133.28
2023-04-03T09:51:39.308Z,99130.31
2023-04-03T09:52:42.509Z,99137.28
2023-04-03T09:53:46.793Z,99129.78
2023-04-03T09:54:51.354Z,99138.31
2023-04-03T09:55:53.343Z,99127.72
2023-04-03T09:56:57.653Z,99132.28
2023-04-03T09:58:02.245Z,99133.16
2023-04-03T09:59:14.377Z,99137.19
2023-04-03T10:00:23.820Z,99132.91
2023-04-03T10:01:33.249Z,99143.00
2023-04-03T10:02:40.137Z,99136.34
2023-04-03T10:03:47.670Z,99132.28
2023-04-03T10:05:02.559Z,99135.34
2023-04-03T10:06:24.833Z,99142.84
2023-04-03T10:07:30.350Z,99149.34
2023-04-03T10:08:34.454Z,99144.81
2023-04-03T10:09:38.735Z,99153.03
2023-04-03T10:10:46.508Z,99147.28
2023-04-03T10:12:06.668Z,99141.72
2023-04-03T10:13:20.208Z,99144.97
2023-04-03T10:14:26.152Z,99137.47
2023-04-03T10:15:32.181Z,99144.63
2023-04-03T10:16:40.293Z,99148.03
2023-04-03T10:17:52.387Z,99147.44
2023-04-03T10:19:03.601Z,99137.59
2023-04-03T10:20:13.100Z,99144.56
2023-04-03T10:21:31.258Z,99138.19
2023-04-03T10:22:41.500Z,99148.41
2023-04-03T10:23:47.368Z,99147.22
2023-04-03T10:25:01.652Z,99144.63
2023-04-03T10:26:13.981Z,99133.41
2023-04-03T10:27:21.046Z,99134.66
2023-04-03T10:28:26.545Z,99148.31
2023-04-03T10:29:41.966Z,99139.56
2023-04-03T10:30:51.500Z,99140.94
2023-04-03T10:32:03.084Z,99136.53
2023-04-03T10:33:18.222Z,99143.44
2023-04-03T10:34:24.045Z,99130.97
2023-04-03T10:35:34.782Z,99136.47
2023-04-03T10:36:44.005Z,99120.44
2023-04-03T10:37:56.581Z,99126.28
2023-04-03T10:39:04.950Z,99132.84
2023-04-03T10:40:27.092Z,99124.41
2023-04-03T10:41:37.194Z,99117.22
2023-04-03T10:42:46.055Z,99122.03
2023-04-03T10:43:56.374Z,99119.44
2023-04-03T10:45:05.850Z,99122.66
2023-04-03T10:46:11.788Z,99133.13
2023-04-03T10:47:18.468Z,99121.53
2023-04-03T10:48:32.152Z,99133.06
2023-04-03T10:49:57.186Z,99126.63
2023-04-03T10:51:13.241Z,99127.34
2023-04-03T10:52:20.121Z,99117.00
2023-04-03T10:53:29.553Z,99130.66
2023-04-03T10:54:36.593Z,99132.47
2023-04-03T10:55:42.076Z,99126.59
2023-04-03T10:56:57.884Z,99132.09
2023-04-03T10:58:08.283Z,99123.22
2023-04-03T10:59:23.603Z,99126.13
2023-04-03T11:00:32.069Z,99130.72
2023-04-03T11:01:38.022Z,99128.53
2023-04-03T11:02:44.861Z,99125.94
2023-04-03T11:03:49.254Z,99130.22
2023-04-03T11:04:55.759Z,99122.81
2023-04-03T11:05:58.724Z,99132.97
2023-04-03T11:07:04.217Z,99133.28
2023-04-03T11:08:19.782Z,99133.56
2023-04-03T11:09:26.496Z,99138.25
2023-04-03T11:10:34.637Z,99143.81
2023-04-03T11:11:43.000Z,99140.19
2023-04-03T11:12:50.429Z,99140.19
2023-04-03T11:13:56.912Z,99141.13
2023-04-03T11:15:00.031Z,99140.19
2023-04-03T11:16:01.972Z,99141.13
2023-04-03T11:17:14.330Z,99140.38
2023-04-03T11:18:19.983Z,99139.34
2023-04-03T11:19:25.224Z,99137.47
2023-04-03T11:20:34.091Z,99128.38
2023-04-03T11:21:41.594Z,99132.53
2023-04-03T11:22:48.976Z,99124.75
2023-04-03T11:23:53.311Z,99122.28
2023-04-03T11:25:04.071Z,99118.59
2023-04-03T11:26:13.553Z,99119.66
2023-04-03T11:27:23.396Z,99115.22
2023-04-03T11:28:28.055Z,99112.72
2023-04-03T11:29:35.721Z,99132.03
2023-04-03T11:30:44.059Z,99126.06
2023-04-03T11:32:03.773Z,99118.19
2023-04-03T11:33:31.475Z,99123.41
2023-04-03T11:34:39.261Z,99118.94
2023-04-03T11:35:44.446Z,99115.28
2023-04-03T11:36:50.099Z,99115.47
2023-04-03T11:37:54.393Z,99113.81
2023-04-03T11:39:00.963Z,99110.06
2023-04-03T11:40:05.988Z,99104.78
2023-04-03T11:41:10.270Z,99108.09
2023-04-03T11:42:16.917Z,99101.44
2023-04-03T11:43:26.465Z,99102.34
2023-04-03T11:44:39.335Z,99105.19
2023-04-03T11:45:52.749Z,99106.50
2023-04-03T11:46:58.225Z,99090.81
2023-04-03T11:48:12.932Z,99094.81
2023-04-03T11:49:59.156Z,99098.03
2023-04-03T11:51:42.191Z,99107.44
2023-04-03T11:53:28.139Z,99098.28
2023-04-03T11:54:49.015Z,99107.88
2023-04-03T11:56:03.052Z,99110.22
2023-04-03T11:57:34.423Z,99116.66
2023-04-03T11:58:37.340Z,99106.81
2023-04-03T11:59:42.986Z,99105.03
2023-04-03T12:01:11.320Z,99108.47
2023-04-03T12:02:51.275Z,99101.38
2023-04-03T12:04:08.918Z,99087.84
2023-04-03T12:05:27.132Z,99103.56
2023-04-03T12:07:20.019Z,99108.81
2023-04-03T12:08:26.115Z,99113.22
2023-04-03T12:09:36.497Z,99107.00
2023-04-03T12:10:39.521Z,99111.94
2023-04-03T12:11:41.854Z,99113.03
2023-04-03T12:12:44.846Z,99106.34
2023-04-03T12:14:05.824Z,99095.00
2023-04-03T12:15:48.075Z,99085.50
2023-04-03T12:16:52.204Z,99092.47
2023-04-03T12:17:56.346Z,99094.94
2023-04-03T12:19:03.771Z,99091.72
2023-04-03T12:20:54.094Z,99082.13
2023-04-03T12:22:12.649Z,99097.38
2023-04-03T12:23:30.916Z,99096.34
2023-04-03T12:24:34.841Z,99102.88
2023-04-03T12:25:51.282Z,99106.34
2023-04-03T12:27:05.543Z,99110.75
2023-04-03T12:28:08.742Z,99109.34
2023-04-03T12:29:16.672Z,99099.75
2023-04-03T12:30:23.909Z,99099.78
2023-04-03T12:31:42.116Z,99099.03
2023-04-03T12:33:11.812Z,99098.69
2023-04-03T12:34:29.448Z,99097.56
2023-04-03T12:35:33.369Z,99096.41
2023-04-03T12:36:44.892Z,99090.66
2023-04-03T12:38:14.521Z,99091.56
2023-04-03T12:39:38.885Z,99098.13
2023-04-03T12:40:44.356Z,99097.97
2023-04-03T12:41:53.668Z,99092.22
2023-04-03T12:43:15.922Z,99097.97
2023-04-03T12:44:30.392Z,99108.75
2023-04-03T12:45:41.555Z,99103.19
2023-04-03T12:46:48.145Z,99103.72
2023-04-03T12:47:54.782Z,99112.78
2023-04-03T12:48:59.615Z,99103.00
2023-04-03T12:50:02.657Z,99099.34
2023-04-03T12:51:07.517Z,99089.34
2023-04-03T12:52:20.647Z,99090.13
2023-04-03T12:53:25.242Z,99089.16
2023-04-03T12:54:30.676Z,99084.06
2023-04-03T12:55:33.658Z,99082.25